createdAt,value
2019-05-11T00:01:30.267Z,89.80
2019-05-11T00:03:58.843Z,89.30
2019-05-11T00:06:27.735Z,89.60
2019-05-11T00:09:02.345Z,89.30
2019-05-11T00:11:30.899Z,89.60
2019-05-11T00:13:59.489Z,89.20
2019-05-11T00:16:27.992Z,89.10
2019-05-11T00:18:56.478Z,88.70
2019-05-11T00:21:25.044Z,89.40
2019-05-11T00:23:54.966Z,89.50
2019-05-11T00:26:23.657Z,89.40
2019-05-11T00:28:52.517Z,89.20
2019-05-11T00:31:21.080Z,89.50
2019-05-11T00:33:49.635Z,89.30
2019-05-11T00:36:18.201Z,89.50
2019-05-11T00:38:46.745Z,88.90
2019-05-11T00:41:15.232Z,89.30
2019-05-11T00:43:43.779Z,88.30
2019-05-11T00:46:12.320Z,89.10
2019-05-11T00:48:40.792Z,89.10
2019-05-11T00:51:09.341Z,88.70
2019-05-11T00:53:37.983Z,86.30
2019-05-11T00:56:06.604Z,85.60
2019-05-11T00:58:35.108Z,86.20
2019-05-11T01:01:03.942Z,86.20
2019-05-11T01:03:32.835Z,85.80
2019-05-11T01:06:01.812Z,85.20
2019-05-11T01:08:30.311Z,86.20
2019-05-11T01:10:58.847Z,86.00
2019-05-11T01:13:27.351Z,86.00
2019-05-11T01:15:55.904Z,86.10
2019-05-11T01:18:24.474Z,85.60
2019-05-11T01:20:56.133Z,83.50
2019-05-11T01:23:24.692Z,83.00
2019-05-11T01:25:56.477Z,83.10
2019-05-11T01:28:25.228Z,84.30
2019-05-11T01:30:53.689Z,84.10
2019-05-11T01:33:22.165Z,85.30
2019-05-11T01:35:51.240Z,85.80
2019-05-11T01:38:19.955Z,86.60
2019-05-11T01:40:58.068Z,86.90
2019-05-11T01:43:18.648Z,86.80
2019-05-11T01:45:47.137Z,86.10
2019-05-11T01:48:15.685Z,86.30
2019-05-11T01:50:44.245Z,86.90
2019-05-11T01:53:13.093Z,87.60
2019-05-11T01:55:41.585Z,87.40
2019-05-11T01:58:10.001Z,87.90
2019-05-11T02:00:38.450Z,88.60
2019-05-11T02:03:06.943Z,89.00
2019-05-11T02:05:43.451Z,88.90
2019-05-11T02:08:12.264Z,89.40
2019-05-11T02:10:41.495Z,89.00
2019-05-11T02:13:09.928Z,88.50
2019-05-11T02:15:38.645Z,88.40
2019-05-11T02:18:07.091Z,87.20
2019-05-11T02:20:38.324Z,87.60
2019-05-11T02:23:06.780Z,87.80
2019-05-11T02:25:35.209Z,88.00
2019-05-11T02:28:03.686Z,88.60
2019-05-11T02:30:32.255Z,89.70
2019-05-11T02:33:00.766Z,89.90
2019-05-11T02:35:32.408Z,89.80
2019-05-11T02:38:00.858Z,89.60
2019-05-11T02:40:29.431Z,89.50
2019-05-11T02:42:57.865Z,89.50
2019-05-11T02:45:35.443Z,90.00
2019-05-11T02:48:03.985Z,89.70
2019-05-11T02:50:33.517Z,89.10
2019-05-11T02:53:03.029Z,89.40
2019-05-11T02:55:36.256Z,88.90
2019-05-11T02:58:07.035Z,89.40
2019-05-11T03:00:38.466Z,90.50
2019-05-11T03:03:07.522Z,90.90
2019-05-11T03:05:36.103Z,90.60
2019-05-11T03:08:07.731Z,89.80
2019-05-11T03:10:54.693Z,90.00
2019-05-11T03:13:23.161Z,89.90
2019-05-11T03:15:51.766Z,87.90
2019-05-11T03:18:20.209Z,87.00
2019-05-11T03:20:49.031Z,87.10
2019-05-11T03:23:17.525Z,86.50
2019-05-11T03:25:46.298Z,87.70
2019-05-11T03:28:14.732Z,89.10
2019-05-11T03:30:43.278Z,90.00
2019-05-11T03:33:11.762Z,90.00
2019-05-11T03:35:40.255Z,89.30
2019-05-11T03:38:09.142Z,88.70
2019-05-11T03:40:37.601Z,88.10
2019-05-11T03:43:06.038Z,88.00
2019-05-11T03:45:34.614Z,89.30
2019-05-11T03:48:03.068Z,89.60
2019-05-11T03:50:31.579Z,90.40
2019-05-11T03:53:00.021Z,90.90
2019-05-11T03:55:28.750Z,90.90
2019-05-11T03:57:57.220Z,91.00
2019-05-11T04:00:25.783Z,91.20
2019-05-11T04:02:54.311Z,90.90
2019-05-11T04:05:23.001Z,90.70
2019-05-11T04:07:51.443Z,90.80
2019-05-11T04:10:24.610Z,90.80
2019-05-11T04:12:50.721Z,90.70
2019-05-11T04:15:19.537Z,90.90
2019-05-11T04:17:48.005Z,90.90
2019-05-11T04:20:16.521Z,90.70
2019-05-11T04:22:45.038Z,90.30
2019-05-11T04:25:13.485Z,90.30
2019-05-11T04:27:41.920Z,90.20
2019-05-11T04:30:10.830Z,90.10
2019-05-11T04:32:39.256Z,90.50
2019-05-11T04:35:08.315Z,90.50
2019-05-11T04:37:36.747Z,90.30
2019-05-11T04:40:06.041Z,90.00
2019-05-11T04:42:52.826Z,89.60
2019-05-11T04:45:07.364Z,90.00
2019-05-11T04:47:36.077Z,89.60
2019-05-11T04:50:08.228Z,90.00
2019-05-11T04:52:36.738Z,89.60
2019-05-11T04:55:06.041Z,88.50
2019-05-11T04:57:34.497Z,88.60
2019-05-11T05:00:03.013Z,89.30
2019-05-11T05:02:31.520Z,89.40
2019-05-11T05:05:00.279Z,89.50
2019-05-11T05:07:28.725Z,89.40
2019-05-11T05:09:57.156Z,89.20
2019-05-11T05:12:25.943Z,88.90
2019-05-11T05:14:54.388Z,89.00
2019-05-11T05:17:22.834Z,89.00
2019-05-11T05:19:51.268Z,88.30
2019-05-11T05:22:19.754Z,88.20
2019-05-11T05:24:48.245Z,87.90
2019-05-11T05:27:16.704Z,88.70
2019-05-11T05:29:45.146Z,89.20
2019-05-11T05:32:13.930Z,90.00
2019-05-11T05:34:42.399Z,90.00
2019-05-11T05:37:10.922Z,90.20
2019-05-11T05:39:39.355Z,90.60
2019-05-11T05:42:07.788Z,90.80
2019-05-11T05:44:36.567Z,91.00
2019-05-11T05:47:05.010Z,91.50
2019-05-11T05:49:33.465Z,91.40
2019-05-11T05:52:01.939Z,91.80
2019-05-11T05:54:30.423Z,91.60
2019-05-11T05:56:58.862Z,91.50
2019-05-11T05:59:27.586Z,91.50
2019-05-11T06:01:56.399Z,91.30
2019-05-11T06:04:25.178Z,91.60
2019-05-11T06:06:53.619Z,91.60
2019-05-11T06:09:22.369Z,91.40
2019-05-11T06:11:51.266Z,91.60
2019-05-11T06:14:19.778Z,91.40
2019-05-11T06:16:48.546Z,91.50
2019-05-11T06:19:17.023Z,91.10
2019-05-11T06:21:45.462Z,90.70
2019-05-11T06:24:13.941Z,90.70
2019-05-11T06:26:42.511Z,90.50
2019-05-11T06:29:10.945Z,90.10
2019-05-11T06:31:39.845Z,90.00
2019-05-11T06:34:08.261Z,90.00
2019-05-11T06:36:37.030Z,89.90
2019-05-11T06:39:07.566Z,89.90
2019-05-11T06:41:37.056Z,89.60
2019-05-11T06:44:06.353Z,88.70
2019-05-11T06:46:35.414Z,88.30
2019-05-11T06:49:04.014Z,88.20
2019-05-11T06:51:32.758Z,86.70
2019-05-11T06:54:01.550Z,87.50
2019-05-11T06:56:29.979Z,87.70
2019-05-11T06:58:58.425Z,87.10
2019-05-11T07:01:26.924Z,86.20
2019-05-11T07:03:55.539Z,84.80
2019-05-11T07:06:28.183Z,85.80
2019-05-11T07:08:54.150Z,85.10
2019-05-11T07:11:23.305Z,84.60
2019-05-11T07:13:51.757Z,84.30
2019-05-11T07:16:20.913Z,84.20
2019-05-11T07:18:49.361Z,82.50
2019-05-11T07:21:17.790Z,82.90
2019-05-11T07:23:46.554Z,83.10
2019-05-11T07:26:14.986Z,82.10
2019-05-11T07:28:43.737Z,81.30
2019-05-11T07:31:12.168Z,80.90
2019-05-11T07:33:41.185Z,80.60
2019-05-11T07:36:09.628Z,80.10
2019-05-11T07:38:38.410Z,80.80
2019-05-11T07:41:08.774Z,80.70
2019-05-11T07:43:38.036Z,81.80
2019-05-11T07:46:12.806Z,79.90
2019-05-11T07:48:50.974Z,80.50
2019-05-11T07:51:19.432Z,80.60
2019-05-11T07:53:48.655Z,80.50
2019-05-11T07:56:18.763Z,80.00
2019-05-11T07:58:48.221Z,80.40
2019-05-11T08:01:18.880Z,79.90
2019-05-11T08:03:48.378Z,81.00
2019-05-11T08:06:18.254Z,80.20
2019-05-11T08:08:49.072Z,79.40
2019-05-11T08:11:18.256Z,79.80
2019-05-11T08:13:48.158Z,79.80
2019-05-11T08:16:18.584Z,80.00
2019-05-11T08:18:48.110Z,79.10
2019-05-11T08:21:17.890Z,78.70
2019-05-11T08:23:48.403Z,79.70
2019-05-11T08:26:18.823Z,78.10
2019-05-11T08:28:48.640Z,78.50
2019-05-11T08:31:18.651Z,80.00
2019-05-11T08:33:48.015Z,78.40
2019-05-11T08:36:18.394Z,78.50
2019-05-11T08:38:48.271Z,77.50
2019-05-11T08:41:18.449Z,77.70
2019-05-11T08:43:48.057Z,77.50
2019-05-11T08:46:18.551Z,77.00
2019-05-11T08:48:47.869Z,76.50
2019-05-11T08:51:18.716Z,77.10
2019-05-11T08:53:48.060Z,77.10
2019-05-11T08:56:18.912Z,75.40
2019-05-11T08:58:49.220Z,75.50
2019-05-11T09:01:18.301Z,74.40
2019-05-11T09:03:47.804Z,75.80
2019-05-11T09:06:17.874Z,76.50
2019-05-11T09:08:49.122Z,73.00
2019-05-11T09:11:18.844Z,73.20
2019-05-11T09:13:48.805Z,74.40
2019-05-11T09:16:19.106Z,72.40
2019-05-11T09:18:48.062Z,71.90
2019-05-11T09:21:18.940Z,73.90
2019-05-11T09:23:48.636Z,70.30
2019-05-11T09:26:18.181Z,71.80
2019-05-11T09:28:47.558Z,70.70
2019-05-11T09:31:18.882Z,72.20
2019-05-11T09:33:48.178Z,71.30
2019-05-11T09:36:17.970Z,68.80
2019-05-11T09:38:48.928Z,69.00
2019-05-11T09:41:18.161Z,69.10
2019-05-11T09:43:48.311Z,68.50
2019-05-11T09:46:18.953Z,68.80
2019-05-11T09:48:48.371Z,68.10
2019-05-11T09:51:18.484Z,68.00
2019-05-11T09:53:48.324Z,66.80
2019-05-11T09:56:18.308Z,68.40
2019-05-11T09:58:48.079Z,67.80
2019-05-11T10:01:18.266Z,68.20
2019-05-11T10:03:48.085Z,68.80
2019-05-11T10:06:19.047Z,68.30
2019-05-11T10:08:48.632Z,68.40
2019-05-11T10:11:18.900Z,66.30
2019-05-11T10:13:48.463Z,65.30
2019-05-11T10:16:17.899Z,64.80
2019-05-11T10:18:48.851Z,65.40
2019-05-11T10:21:18.961Z,63.90
2019-05-11T10:23:48.986Z,65.10
2019-05-11T10:26:18.711Z,65.90
2019-05-11T10:28:48.351Z,67.40
2019-05-11T10:31:18.094Z,66.10
2019-05-11T10:33:50.012Z,68.40
2019-05-11T10:36:19.003Z,65.70
2019-05-11T10:38:48.737Z,63.00
2019-05-11T10:41:18.315Z,65.10
2019-05-11T10:43:48.943Z,63.60
2019-05-11T10:46:23.365Z,63.60
2019-05-11T10:48:49.953Z,64.40
2019-05-11T10:51:18.723Z,64.00
2019-05-11T10:53:51.698Z,64.10
2019-05-11T10:56:18.081Z,65.60
2019-05-11T10:58:48.184Z,65.60
2019-05-11T11:01:18.218Z,65.40
2019-05-11T11:03:48.394Z,65.70
2019-05-11T11:06:18.818Z,65.10
2019-05-11T11:08:48.672Z,66.60
2019-05-11T11:11:18.533Z,68.30
2019-05-11T11:13:47.990Z,69.20
2019-05-11T11:16:32.777Z,69.90
2019-05-11T11:18:48.644Z,72.10
2019-05-11T11:21:22.665Z,72.20
2019-05-11T11:23:48.205Z,70.80
2019-05-11T11:26:18.495Z,72.20
2019-05-11T11:28:47.879Z,73.10
2019-05-11T11:31:18.788Z,73.00
2019-05-11T11:33:48.905Z,70.10
2019-05-11T11:36:18.024Z,69.80
2019-05-11T11:38:47.888Z,69.20
2019-05-11T11:41:18.498Z,70.50
2019-05-11T11:43:48.291Z,71.30
2019-05-11T11:46:18.734Z,71.90
2019-05-11T11:48:48.816Z,71.40
2019-05-11T11:51:18.711Z,71.90
2019-05-11T11:53:48.039Z,71.80
2019-05-11T11:56:18.846Z,73.20
2019-05-11T11:58:48.743Z,72.70
2019-05-11T12:01:18.866Z,73.50
2019-05-11T12:03:48.849Z,72.60
2019-05-11T12:06:18.263Z,72.80
2019-05-11T12:08:49.322Z,73.60
2019-05-11T12:11:18.774Z,73.00
2019-05-11T12:13:47.750Z,73.30
2019-05-11T12:16:17.996Z,74.10
2019-05-11T12:18:48.528Z,73.20
2019-05-11T12:21:18.525Z,72.70
2019-05-11T12:23:48.567Z,72.30
2019-05-11T12:26:19.312Z,72.40
2019-05-11T12:28:48.977Z,71.80
2019-05-11T12:31:18.367Z,72.20
2019-05-11T12:33:48.211Z,72.40
2019-05-11T12:36:18.764Z,71.20
2019-05-11T12:38:48.829Z,72.70
2019-05-11T12:41:20.613Z,72.80
2019-05-11T12:43:49.156Z,75.00
2019-05-11T12:46:18.978Z,73.80
2019-05-11T12:48:48.509Z,74.10
2019-05-11T12:51:18.693Z,75.10
2019-05-11T12:53:47.869Z,75.20
2019-05-11T12:56:18.707Z,76.00
2019-05-11T12:58:48.947Z,76.10
2019-05-11T13:01:18.854Z,76.90
2019-05-11T13:03:49.183Z,76.10
2019-05-11T13:06:19.038Z,75.10
2019-05-11T13:08:48.363Z,75.00
2019-05-11T13:11:18.699Z,74.80
2019-05-11T13:13:48.372Z,75.50
2019-05-11T13:16:20.208Z,75.70
2019-05-11T13:18:48.937Z,76.60
2019-05-11T13:21:18.363Z,76.90
2019-05-11T13:23:48.921Z,76.60
2019-05-11T13:26:17.984Z,76.00
2019-05-11T13:28:48.398Z,77.50
2019-05-11T13:31:18.695Z,77.90
2019-05-11T13:33:48.066Z,78.60
2019-05-11T13:36:18.603Z,78.70
2019-05-11T13:38:48.231Z,79.40
2019-05-11T13:41:18.734Z,79.70
2019-05-11T13:43:48.535Z,79.20
2019-05-11T13:46:18.136Z,78.70
2019-05-11T13:48:58.753Z,78.50
2019-05-11T13:51:51.766Z,75.70
2019-05-11T13:54:20.293Z,76.10
2019-05-11T13:56:48.737Z,76.40
2019-05-11T13:59:18.872Z,76.70
2019-05-11T14:01:48.364Z,75.90
2019-05-11T14:04:18.157Z,77.30
2019-05-11T14:06:48.145Z,77.90
2019-05-11T14:09:18.455Z,76.90
2019-05-11T14:11:47.849Z,77.40
2019-05-11T14:14:18.438Z,77.10
2019-05-11T14:16:48.500Z,77.60
2019-05-11T14:19:17.885Z,80.40
2019-05-11T14:21:48.812Z,86.50
2019-05-11T14:24:18.408Z,86.70
2019-05-11T14:26:48.830Z,88.20
2019-05-11T14:29:17.806Z,88.90
2019-05-11T14:31:48.545Z,88.10
2019-05-11T14:34:18.215Z,87.60
2019-05-11T14:36:48.007Z,84.90
2019-05-11T14:39:18.797Z,82.90
2019-05-11T14:41:48.751Z,83.50
2019-05-11T14:44:18.335Z,82.70
2019-05-11T14:46:47.809Z,81.50
2019-05-11T14:49:18.355Z,89.10
2019-05-11T14:51:48.516Z,90.80
2019-05-11T14:54:18.872Z,91.20
2019-05-11T14:56:48.116Z,91.30
2019-05-11T14:59:18.428Z,91.90
2019-05-11T15:01:48.956Z,91.90
2019-05-11T15:04:19.062Z,92.00
2019-05-11T15:06:48.999Z,92.50
2019-05-11T15:09:18.267Z,91.90
2019-05-11T15:11:48.065Z,92.50
2019-05-11T15:14:19.764Z,91.90
2019-05-11T15:16:48.715Z,92.20
2019-05-11T15:19:18.494Z,93.50
2019-05-11T15:21:47.610Z,91.90
2019-05-11T15:24:19.173Z,93.50
2019-05-11T15:26:48.637Z,92.40
2019-05-11T15:29:18.463Z,93.00
2019-05-11T15:31:48.590Z,92.90
2019-05-11T15:34:18.530Z,92.00
2019-05-11T15:36:48.962Z,92.50
2019-05-11T15:39:18.483Z,93.00
2019-05-11T15:41:48.017Z,92.50
2019-05-11T15:44:18.336Z,92.30
2019-05-11T15:46:47.973Z,91.10
2019-05-11T15:49:17.977Z,90.50
2019-05-11T15:51:48.882Z,90.40
2019-05-11T15:54:32.327Z,90.40
2019-05-11T15:57:00.787Z,90.50
2019-05-11T15:59:30.545Z,90.00
2019-05-11T16:01:59.401Z,91.70
2019-05-11T16:04:28.189Z,90.10
2019-05-11T16:06:57.519Z,90.90
2019-05-11T16:09:29.053Z,90.40
2019-05-11T16:11:57.184Z,91.20
2019-05-11T16:14:27.981Z,90.70
2019-05-11T16:16:55.842Z,90.00
2019-05-11T16:19:24.291Z,88.60
2019-05-11T16:21:52.737Z,90.20
2019-05-11T16:24:21.205Z,88.60
2019-05-11T16:26:49.754Z,90.50
2019-05-11T16:29:19.165Z,87.80
2019-05-11T16:31:48.297Z,87.60
2019-05-11T16:34:18.457Z,87.30
2019-05-11T16:36:47.982Z,85.20
2019-05-11T16:39:18.591Z,84.40
2019-05-11T16:41:48.640Z,84.30
2019-05-11T16:44:18.446Z,83.60
2019-05-11T16:46:48.020Z,82.90
2019-05-11T16:49:26.127Z,81.40
2019-05-11T16:51:47.861Z,80.30
2019-05-11T16:54:16.301Z,79.30
2019-05-11T16:56:44.766Z,80.30
2019-05-11T16:59:13.193Z,77.20
2019-05-11T17:01:41.628Z,76.10
2019-05-11T17:04:10.075Z,76.00
2019-05-11T17:06:38.805Z,75.20
2019-05-11T17:09:08.860Z,78.10
2019-05-11T17:11:38.417Z,77.00
2019-05-11T17:14:08.273Z,77.40
2019-05-11T17:16:38.569Z,75.20
2019-05-11T17:19:08.104Z,76.70
2019-05-11T17:21:38.029Z,77.90
2019-05-11T17:24:07.234Z,75.60
2019-05-11T17:26:35.665Z,75.10
2019-05-11T17:29:04.110Z,76.30
2019-05-11T17:31:32.626Z,75.50
2019-05-11T17:34:01.054Z,79.10
2019-05-11T17:36:29.501Z,78.30
2019-05-11T17:38:58.377Z,81.80
2019-05-11T17:41:28.861Z,82.60
2019-05-11T17:43:58.379Z,82.60
2019-05-11T17:46:27.854Z,81.10
2019-05-11T17:48:56.551Z,80.40
2019-05-11T17:51:25.278Z,81.80
2019-05-11T17:53:53.845Z,80.00
2019-05-11T17:56:22.276Z,79.90
2019-05-11T17:58:53.555Z,80.00
2019-05-11T18:01:22.001Z,81.50
2019-05-11T18:03:50.465Z,79.00
2019-05-11T18:06:18.888Z,80.80
2019-05-11T18:08:47.867Z,81.30
2019-05-11T18:11:18.556Z,79.30
2019-05-11T18:13:48.259Z,79.30
2019-05-11T18:16:18.708Z,79.10
2019-05-11T18:18:48.377Z,79.90
2019-05-11T18:21:18.878Z,79.30
2019-05-11T18:23:48.015Z,80.10
2019-05-11T18:26:18.102Z,81.00
2019-05-11T18:28:48.241Z,80.00
2019-05-11T18:31:18.189Z,78.90
2019-05-11T18:33:48.680Z,80.30
2019-05-11T18:36:18.311Z,80.70
2019-05-11T18:38:48.767Z,79.70
2019-05-11T18:41:17.544Z,80.60
2019-05-11T18:43:48.165Z,79.50
2019-05-11T18:46:16.152Z,79.60
2019-05-11T18:48:44.586Z,80.00
2019-05-11T18:51:13.057Z,80.60
2019-05-11T18:53:50.382Z,80.40
2019-05-11T18:56:19.029Z,81.10
2019-05-11T18:58:47.902Z,80.50
2019-05-11T19:01:17.857Z,81.20
2019-05-11T19:03:47.901Z,79.80
2019-05-11T19:06:18.402Z,80.90
2019-05-11T19:08:47.873Z,80.20
2019-05-11T19:11:18.237Z,79.90
2019-05-11T19:13:47.838Z,80.50
2019-05-11T19:16:18.638Z,81.90
2019-05-11T19:18:47.963Z,81.50
2019-05-11T19:21:18.006Z,81.10
2019-05-11T19:23:48.692Z,81.10
2019-05-11T19:26:17.871Z,82.70
2019-05-11T19:28:46.517Z,81.00
2019-05-11T19:31:15.260Z,82.10
2019-05-11T19:33:45.729Z,81.80
2019-05-11T19:36:13.872Z,81.40
2019-05-11T19:38:42.652Z,81.90
2019-05-11T19:41:11.106Z,82.00
2019-05-11T19:43:39.826Z,81.90
2019-05-11T19:46:08.823Z,82.40
2019-05-11T19:48:38.439Z,83.60
2019-05-11T19:51:11.338Z,85.80
2019-05-11T19:53:38.666Z,85.80
2019-05-11T19:56:07.871Z,84.80
2019-05-11T19:58:38.076Z,85.10
2019-05-11T20:01:08.677Z,84.40
2019-05-11T20:03:37.883Z,85.10
2019-05-11T20:06:08.552Z,86.10
2019-05-11T20:08:36.707Z,86.40
2019-05-11T20:11:05.149Z,85.00
2019-05-11T20:13:33.943Z,85.60
2019-05-11T20:16:08.253Z,84.00
2019-05-11T20:18:36.853Z,85.50
2019-05-11T20:21:16.699Z,85.00
2019-05-11T20:23:37.568Z,84.60
2019-05-11T20:26:06.013Z,85.30
2019-05-11T20:28:34.532Z,85.70
2019-05-11T20:31:03.029Z,85.80
2019-05-11T20:33:31.484Z,86.50
2019-05-11T20:35:59.916Z,86.90
2019-05-11T20:38:28.377Z,85.90
2019-05-11T20:40:57.725Z,87.00
2019-05-11T20:43:27.917Z,86.20
2019-05-11T20:45:56.736Z,86.60
2019-05-11T20:48:27.547Z,88.70
2019-05-11T20:50:57.567Z,86.80
2019-05-11T20:53:28.469Z,87.50
2019-05-11T20:55:58.132Z,87.40
2019-05-11T20:58:28.734Z,87.50
2019-05-11T21:00:56.466Z,87.70
2019-05-11T21:03:24.953Z,87.50
2019-05-11T21:05:53.746Z,88.10
2019-05-11T21:08:22.228Z,88.40
2019-05-11T21:10:50.653Z,89.10
2019-05-11T21:13:19.098Z,90.00
2019-05-11T21:15:48.042Z,89.10
2019-05-11T21:18:18.491Z,90.20
2019-05-11T21:20:48.313Z,90.10
2019-05-11T21:23:18.553Z,90.10
2019-05-11T21:25:47.261Z,90.40
2019-05-11T21:28:16.048Z,90.00
2019-05-11T21:30:44.498Z,90.50
2019-05-11T21:33:12.956Z,90.30
2019-05-11T21:35:41.378Z,90.90
2019-05-11T21:38:09.802Z,90.90
2019-05-11T21:40:38.318Z,90.60
2019-05-11T21:43:08.771Z,90.20
2019-05-11T21:45:39.949Z,90.10
2019-05-11T21:48:07.743Z,89.90
2019-05-11T21:50:36.757Z,89.10
2019-05-11T21:53:05.184Z,88.60
2019-05-11T21:55:33.632Z,87.80
2019-05-11T21:58:02.062Z,88.20
2019-05-11T22:00:30.700Z,88.60
2019-05-11T22:02:59.503Z,88.60
2019-05-11T22:05:28.924Z,88.30
2019-05-11T22:07:58.247Z,87.20
2019-05-11T22:10:28.353Z,87.20
2019-05-11T22:12:57.398Z,87.30
2019-05-11T22:15:28.477Z,86.60
2019-05-11T22:18:02.560Z,86.90
2019-05-11T22:20:38.073Z,87.30
2019-05-11T22:23:08.505Z,87.10
2019-05-11T22:25:38.219Z,86.50
2019-05-11T22:28:08.468Z,86.90
2019-05-11T22:30:39.060Z,86.90
2019-05-11T22:33:08.767Z,86.30
2019-05-11T22:35:37.972Z,86.40
2019-05-11T22:38:12.768Z,85.30
2019-05-11T22:40:40.993Z,87.40
2019-05-11T22:43:09.689Z,87.80
2019-05-11T22:45:38.477Z,86.70
2019-05-11T22:48:08.042Z,87.00
2019-05-11T22:50:38.178Z,86.20
2019-05-11T22:53:08.876Z,85.50
2019-05-11T22:55:38.170Z,85.70
2019-05-11T22:58:08.479Z,84.80
2019-05-11T23:00:39.789Z,85.20
2019-05-11T23:03:10.786Z,84.50
2019-05-11T23:05:38.532Z,84.90
2019-05-11T23:08:07.702Z,84.90
2019-05-11T23:10:38.532Z,85.40
2019-05-11T23:13:08.216Z,86.00
2019-05-11T23:15:40.021Z,85.40
2019-05-11T23:18:08.617Z,85.80
2019-05-11T23:20:38.674Z,84.60
2019-05-11T23:23:08.817Z,84.80
2019-05-11T23:25:37.539Z,84.40
2019-05-11T23:28:05.999Z,84.80
2019-05-11T23:30:34.506Z,84.30
2019-05-11T23:33:02.921Z,84.50
2019-05-11T23:35:31.366Z,83.90
2019-05-11T23:38:00.166Z,84.90
2019-05-11T23:40:28.618Z,84.60
2019-05-11T23:42:57.935Z,84.50
2019-05-11T23:45:27.957Z,85.80
2019-05-11T23:47:58.653Z,86.50
2019-05-11T23:50:28.200Z,86.10
2019-05-11T23:53:05.946Z,86.80
2019-05-11T23:55:29.014Z,86.70
2019-05-11T23:57:57.845Z,86.90
